createdAt,value
2022-12-18T05:01:16.118Z,99.90
2022-12-18T05:03:47.907Z,99.90
2022-12-18T05:06:19.611Z,99.90
2022-12-18T05:08:51.362Z,99.90
2022-12-18T05:11:23.023Z,99.90
2022-12-18T05:13:54.702Z,99.90
2022-12-18T05:16:27.777Z,99.90
2022-12-18T05:18:59.467Z,99.90
2022-12-18T05:21:31.134Z,99.90
2022-12-18T05:24:02.855Z,99.90
2022-12-18T05:26:34.526Z,99.90
2022-12-18T05:29:06.154Z,99.90
2022-12-18T05:31:39.769Z,99.90
2022-12-18T05:34:11.612Z,99.90
2022-12-18T05:36:44.497Z,99.90
2022-12-18T05:39:16.288Z,99.90
2022-12-18T05:41:47.972Z,99.90
2022-12-18T05:44:19.617Z,99.90
2022-12-18T05:46:52.648Z,99.90
2022-12-18T05:49:24.400Z,99.90
2022-12-18T05:51:56.072Z,99.90
2022-12-18T05:54:28.016Z,99.90
2022-12-18T05:56:59.671Z,99.90
2022-12-18T05:59:31.323Z,99.90
2022-12-18T06:02:04.467Z,99.90
2022-12-18T06:04:36.242Z,99.90
2022-12-18T06:07:07.934Z,99.90
2022-12-18T06:09:39.579Z,99.90
2022-12-18T06:12:11.247Z,99.90
2022-12-18T06:14:42.892Z,99.90
2022-12-18T06:17:16.028Z,99.90
2022-12-18T06:19:47.708Z,99.90
2022-12-18T06:22:19.365Z,99.90
2022-12-18T06:24:51.059Z,99.90
2022-12-18T06:27:22.718Z,99.90
2022-12-18T06:29:54.480Z,99.90
2022-12-18T06:32:27.604Z,99.90
2022-12-18T06:34:59.242Z,99.90
2022-12-18T06:37:31.872Z,99.90
2022-12-18T06:40:03.987Z,99.90
2022-12-18T06:42:35.684Z,99.90
2022-12-18T06:45:08.554Z,99.90
2022-12-18T06:47:41.564Z,99.90
2022-12-18T06:50:13.390Z,99.90
2022-12-18T06:52:45.062Z,99.90
2022-12-18T06:55:16.843Z,99.90
2022-12-18T06:57:48.532Z,99.90
2022-12-18T07:00:20.171Z,99.90
2022-12-18T07:02:53.293Z,99.90
2022-12-18T07:05:24.994Z,99.90
2022-12-18T07:07:56.652Z,99.90
2022-12-18T07:10:28.291Z,99.90
2022-12-18T07:12:59.986Z,99.90
2022-12-18T07:15:31.668Z,99.90
2022-12-18T07:18:04.942Z,99.90
2022-12-18T07:20:36.617Z,99.90
2022-12-18T07:23:08.298Z,99.90
2022-12-18T07:25:39.998Z,99.90
2022-12-18T07:28:15.754Z,99.90
2022-12-18T07:30:49.096Z,99.90
2022-12-18T07:33:22.126Z,99.90
2022-12-18T07:35:53.802Z,99.90
2022-12-18T07:38:25.462Z,99.90
2022-12-18T07:41:01.291Z,99.90
2022-12-18T07:43:32.979Z,99.90
2022-12-18T07:46:05.083Z,99.90
2022-12-18T07:48:38.134Z,99.90
2022-12-18T07:51:09.890Z,99.90
2022-12-18T07:53:41.960Z,99.90
2022-12-18T07:56:30.893Z,99.90
2022-12-18T07:59:03.142Z,99.90
2022-12-18T08:01:34.912Z,99.90
2022-12-18T08:04:08.040Z,99.90
2022-12-18T08:06:42.628Z,99.90
2022-12-18T08:09:18.005Z,99.90
2022-12-18T08:11:49.665Z,99.90
2022-12-18T08:14:21.334Z,99.90
2022-12-18T08:16:53.087Z,99.90
2022-12-18T08:19:26.372Z,99.90
2022-12-18T08:21:58.077Z,99.90
2022-12-18T08:24:29.706Z,99.90
2022-12-18T08:27:31.370Z,99.90
2022-12-18T08:29:53.117Z,99.90
2022-12-18T08:32:24.916Z,99.90
2022-12-18T08:34:57.961Z,99.90
2022-12-18T08:37:29.622Z,99.90
2022-12-18T08:40:01.264Z,99.90
2022-12-18T08:42:32.899Z,99.90
2022-12-18T08:45:05.100Z,99.90
2022-12-18T08:47:36.770Z,99.90
2022-12-18T08:50:10.269Z,99.90
2022-12-18T08:52:41.926Z,99.90
2022-12-18T08:55:13.556Z,99.90
2022-12-18T08:57:48.556Z,99.90
2022-12-18T09:00:20.328Z,99.90
2022-12-18T09:02:52.096Z,99.90
2022-12-18T09:05:25.166Z,99.90
2022-12-18T09:07:56.826Z,99.90
2022-12-18T09:10:28.468Z,99.90
2022-12-18T09:13:00.181Z,99.90
2022-12-18T09:15:31.803Z,99.90
2022-12-18T09:18:03.614Z,99.90
2022-12-18T09:20:36.615Z,99.90
2022-12-18T09:23:08.401Z,99.90
2022-12-18T09:25:40.069Z,99.90
2022-12-18T09:28:12.652Z,99.90
2022-12-18T09:30:45.542Z,99.90
2022-12-18T09:33:17.278Z,99.90
2022-12-18T09:35:50.511Z,99.90
2022-12-18T09:38:22.157Z,99.90
2022-12-18T09:40:54.670Z,99.90
2022-12-18T09:43:29.096Z,99.90
2022-12-18T09:46:04.209Z,99.90
2022-12-18T09:48:37.281Z,99.90
2022-12-18T09:51:14.248Z,99.90
2022-12-18T09:53:47.584Z,99.90
2022-12-18T09:56:20.716Z,99.90
2022-12-18T09:58:55.995Z,99.90
2022-12-18T10:01:37.662Z,99.90
2022-12-18T10:04:10.949Z,99.90
2022-12-18T10:06:47.442Z,99.90
2022-12-18T10:09:24.490Z,99.90
2022-12-18T10:12:00.443Z,99.90
2022-12-18T10:14:35.240Z,99.90
2022-12-18T10:17:13.224Z,99.90
2022-12-18T10:19:47.840Z,99.90
2022-12-18T10:22:28.101Z,99.90
2022-12-18T10:25:02.657Z,99.90
2022-12-18T10:27:34.295Z,99.90
2022-12-18T10:30:09.191Z,99.90
2022-12-18T10:32:40.862Z,99.90
2022-12-18T10:35:17.582Z,99.90
2022-12-18T10:38:05.321Z,99.90
2022-12-18T10:40:49.978Z,99.90
2022-12-18T10:43:23.466Z,99.90
2022-12-18T10:46:00.855Z,1.00
2022-12-18T10:48:32.860Z,1.00
2022-12-18T10:51:12.821Z,1.00
2022-12-18T10:53:52.428Z,1.00
2022-12-18T10:56:24.778Z,1.00
2022-12-18T10:58:57.983Z,1.00
2022-12-18T11:01:30.061Z,1.00
2022-12-18T11:04:03.707Z,1.00
2022-12-18T11:06:35.398Z,1.00
2022-12-18T11:09:20.589Z,1.00
2022-12-18T11:11:52.835Z,1.00
2022-12-18T11:14:25.680Z,99.90
2022-12-18T11:17:27.723Z,1.00
2022-12-18T11:19:53.568Z,99.90
2022-12-18T11:22:26.166Z,99.90
2022-12-18T11:27:53.493Z,99.90
2022-12-18T11:30:26.656Z,99.90
2022-12-18T11:33:01.709Z,99.90
2022-12-18T11:35:38.169Z,1.00
2022-12-18T11:38:15.909Z,1.00
2022-12-18T11:40:52.710Z,1.00
2022-12-18T11:43:27.567Z,99.90
2022-12-18T11:46:01.811Z,1.00
2022-12-18T11:48:34.921Z,99.90
2022-12-18T11:51:09.605Z,1.00
2022-12-18T11:53:41.247Z,1.00
2022-12-18T11:56:26.225Z,1.00
2022-12-18T11:59:00.892Z,1.00
2022-12-18T12:01:43.887Z,66.90
2022-12-18T12:04:25.131Z,1.00
2022-12-18T12:07:03.048Z,1.00
2022-12-18T12:09:37.563Z,99.90
2022-12-18T12:12:18.864Z,99.90
2022-12-18T12:14:53.601Z,99.90
2022-12-18T12:17:30.351Z,99.90
2022-12-18T12:20:08.686Z,99.90
2022-12-18T12:22:43.712Z,1.00
2022-12-18T12:25:26.624Z,99.90
2022-12-18T12:28:06.338Z,1.00
2022-12-18T12:30:42.954Z,91.90
2022-12-18T12:33:21.056Z,99.90
2022-12-18T12:35:53.879Z,89.50
2022-12-18T12:38:27.363Z,1.00
2022-12-18T12:41:03.112Z,99.90
2022-12-18T12:46:32.107Z,94.20
2022-12-18T12:49:04.463Z,1.00
2022-12-18T12:51:36.796Z,1.00
2022-12-18T12:54:13.975Z,1.00
2022-12-18T12:56:49.056Z,1.00
2022-12-18T12:59:24.989Z,1.00
2022-12-18T13:02:00.245Z,49.00
2022-12-18T13:04:34.184Z,95.50
2022-12-18T13:07:07.491Z,99.90
2022-12-18T13:10:17.132Z,58.70
2022-12-18T13:12:57.357Z,99.90
2022-12-18T13:13:43.017Z,99.90
2022-12-18T13:15:32.761Z,34.70
2022-12-18T13:18:14.517Z,99.90
2022-12-18T13:23:29.690Z,99.90
2022-12-18T13:26:30.186Z,99.90
2022-12-18T13:29:02.142Z,99.90
2022-12-18T13:32:10.349Z,1.00
2022-12-18T13:34:41.995Z,95.20
2022-12-18T13:37:42.656Z,99.90
2022-12-18T13:40:53.844Z,99.90
2022-12-18T13:43:34.111Z,99.90
2022-12-18T13:46:17.760Z,99.90
2022-12-18T13:48:54.874Z,99.90
2022-12-18T13:51:26.592Z,12.60
2022-12-18T13:53:59.177Z,99.90
2022-12-18T13:56:32.609Z,99.90
2022-12-18T13:59:06.978Z,99.90
2022-12-18T14:01:43.424Z,99.90
2022-12-18T14:04:20.649Z,99.90
2022-12-18T14:06:54.451Z,99.90
2022-12-18T14:09:27.966Z,1.00
2022-12-18T14:12:00.538Z,1.00
2022-12-18T14:14:33.837Z,1.00
2022-12-18T14:17:09.430Z,1.00
2022-12-18T14:19:45.158Z,1.00
2022-12-18T14:22:18.257Z,1.00
2022-12-18T14:25:05.489Z,1.00
2022-12-18T14:27:38.099Z,1.00
2022-12-18T14:30:24.885Z,1.00
2022-12-18T14:33:04.016Z,1.00
2022-12-18T14:35:36.476Z,1.00
2022-12-18T14:40:44.408Z,1.00
2022-12-18T14:43:16.118Z,1.00
2022-12-18T14:45:49.349Z,14.50
2022-12-18T14:48:23.842Z,2.10
2022-12-18T14:51:00.809Z,1.00
2022-12-18T14:53:38.284Z,8.10
2022-12-18T14:56:18.038Z,15.90
2022-12-18T14:58:50.813Z,16.20
2022-12-18T15:01:26.135Z,41.20
2022-12-18T15:06:32.473Z,48.70
2022-12-18T15:09:05.314Z,44.20
2022-12-18T15:11:45.060Z,52.50
2022-12-18T15:14:32.587Z,57.30
2022-12-18T15:17:06.938Z,69.30
2022-12-18T15:19:39.884Z,85.30
2022-12-18T15:22:19.319Z,90.40
2022-12-18T15:24:51.083Z,77.10
2022-12-18T15:27:29.225Z,98.10
2022-12-18T15:30:19.976Z,79.30
2022-12-18T15:32:53.152Z,96.30
2022-12-18T15:35:25.233Z,99.90
2022-12-18T15:37:56.872Z,99.90
2022-12-18T15:40:28.510Z,97.40
2022-12-18T15:43:00.150Z,97.00
2022-12-18T15:45:31.772Z,95.90
2022-12-18T15:48:09.168Z,97.80
2022-12-18T15:50:40.804Z,99.90
2022-12-18T15:53:12.465Z,99.90
2022-12-18T15:55:44.122Z,99.90
2022-12-18T15:58:15.782Z,99.90
2022-12-18T16:00:48.251Z,99.90
2022-12-18T16:03:21.336Z,99.90
2022-12-18T16:05:53.096Z,99.90
2022-12-18T16:08:25.937Z,99.90
2022-12-18T16:10:57.637Z,99.90
2022-12-18T16:13:29.300Z,99.90
2022-12-18T16:16:01.002Z,99.90
2022-12-18T16:18:34.068Z,99.90
2022-12-18T16:21:06.063Z,99.90
2022-12-18T16:23:37.913Z,99.90
2022-12-18T16:26:09.632Z,99.90
2022-12-18T16:28:46.720Z,99.90
2022-12-18T16:31:20.036Z,99.90
2022-12-18T16:34:13.172Z,99.90
2022-12-18T16:36:44.795Z,99.90
2022-12-18T16:39:16.568Z,99.90
2022-12-18T16:41:48.390Z,99.90
2022-12-18T16:44:20.147Z,99.90
2022-12-18T16:46:51.900Z,99.90
2022-12-18T16:49:25.072Z,99.90
2022-12-18T16:51:56.792Z,99.90
2022-12-18T16:54:28.452Z,99.90
2022-12-18T16:57:00.093Z,99.90
2022-12-18T16:59:31.757Z,99.90
2022-12-18T17:02:03.856Z,99.90
2022-12-18T17:04:37.279Z,99.90
2022-12-18T17:07:09.042Z,99.90
2022-12-18T17:09:40.674Z,99.90
2022-12-18T17:12:12.304Z,99.90
2022-12-18T17:14:43.988Z,99.90
2022-12-18T17:19:57.293Z,99.90
2022-12-18T17:22:29.028Z,99.90
2022-12-18T17:25:00.692Z,99.90
2022-12-18T17:27:32.351Z,99.90
2022-12-18T17:30:04.905Z,99.90
2022-12-18T17:32:36.560Z,99.90
2022-12-18T17:35:09.870Z,99.90
2022-12-18T17:37:41.490Z,99.90
2022-12-18T17:40:13.164Z,99.90
2022-12-18T17:42:44.796Z,99.90
2022-12-18T17:45:16.509Z,99.90
2022-12-18T17:47:48.157Z,99.90
2022-12-18T17:50:21.134Z,99.90
2022-12-18T17:52:55.553Z,99.90
2022-12-18T17:55:27.433Z,99.90
2022-12-18T17:57:59.087Z,99.90
2022-12-18T18:00:30.795Z,99.90
2022-12-18T18:03:02.626Z,99.90
2022-12-18T18:05:35.768Z,99.90
2022-12-18T18:08:07.437Z,99.90
2022-12-18T18:10:39.413Z,99.90
2022-12-18T18:13:17.652Z,99.90
2022-12-18T18:15:55.777Z,99.90
2022-12-18T18:18:27.472Z,99.90
2022-12-18T18:21:03.472Z,99.90
2022-12-18T18:23:35.787Z,99.90
2022-12-18T18:26:08.588Z,99.90
2022-12-18T18:28:40.390Z,99.90
2022-12-18T18:31:13.991Z,99.90
2022-12-18T18:33:45.900Z,99.90
2022-12-18T18:36:18.926Z,99.90
2022-12-18T18:38:50.574Z,99.90
2022-12-18T18:41:22.238Z,99.90
2022-12-18T18:43:54.631Z,99.90
2022-12-18T18:46:26.420Z,99.90
2022-12-18T18:48:58.108Z,99.90
2022-12-18T18:51:34.850Z,99.90
2022-12-18T18:54:07.077Z,99.90
2022-12-18T18:57:11.743Z,99.90
2022-12-18T18:59:31.549Z,99.90
2022-12-18T19:02:04.337Z,99.90
2022-12-18T19:04:41.695Z,99.90
2022-12-18T19:07:29.880Z,99.90
2022-12-18T19:10:04.601Z,99.90
2022-12-18T19:12:37.005Z,99.90
2022-12-18T19:15:10.701Z,99.90
2022-12-18T19:17:47.582Z,99.90
2022-12-18T19:20:19.667Z,99.90
2022-12-18T19:22:55.354Z,99.90
2022-12-18T19:25:41.594Z,99.90
2022-12-18T19:28:21.620Z,99.90
2022-12-18T19:30:56.369Z,99.90
2022-12-18T19:33:43.096Z,99.90
2022-12-18T19:36:18.260Z,99.90
2022-12-18T19:38:51.788Z,99.90
2022-12-18T19:41:23.913Z,99.90
2022-12-18T19:43:57.206Z,99.90
2022-12-18T19:46:28.898Z,99.90
2022-12-18T19:49:00.647Z,99.90
2022-12-18T19:51:32.623Z,99.90
2022-12-18T19:54:05.843Z,99.90
2022-12-18T19:56:37.541Z,99.90
2022-12-18T19:59:09.551Z,99.90
2022-12-18T20:01:41.393Z,99.90
2022-12-18T20:04:13.271Z,99.90
2022-12-18T20:06:49.084Z,99.90
2022-12-18T20:09:22.334Z,99.90
2022-12-18T20:11:54.396Z,99.90
2022-12-18T20:14:26.244Z,99.90
2022-12-18T20:16:57.999Z,99.90
2022-12-18T20:19:32.007Z,99.90
2022-12-18T20:22:05.998Z,99.90
2022-12-18T20:24:38.989Z,99.90
2022-12-18T20:27:15.236Z,99.90
2022-12-18T20:29:48.852Z,99.90
2022-12-18T20:32:20.605Z,99.90
2022-12-18T20:34:52.463Z,99.90
2022-12-18T20:37:24.817Z,99.90
2022-12-18T20:39:58.481Z,99.90
2022-12-18T20:42:30.410Z,99.90
2022-12-18T20:45:02.078Z,99.90
2022-12-18T20:47:33.728Z,99.90
2022-12-18T20:50:06.160Z,99.90
2022-12-18T20:52:37.835Z,99.90
2022-12-18T20:55:11.013Z,99.90
2022-12-18T20:57:42.676Z,99.90
2022-12-18T21:00:14.832Z,99.90
2022-12-18T21:02:50.673Z,99.90
2022-12-18T21:05:22.362Z,99.90
2022-12-18T21:07:54.019Z,99.90
2022-12-18T21:10:26.986Z,99.90
2022-12-18T21:13:01.723Z,99.90
2022-12-18T21:15:36.203Z,99.90
2022-12-18T21:18:07.924Z,99.90
2022-12-18T21:20:39.875Z,99.90
2022-12-18T21:23:16.432Z,99.90
2022-12-18T21:25:55.838Z,99.90
2022-12-18T21:28:27.876Z,99.90
2022-12-18T21:30:59.669Z,99.90
2022-12-18T21:33:31.362Z,99.90
2022-12-18T21:36:04.017Z,99.90
2022-12-18T21:38:35.680Z,99.90
2022-12-18T21:41:09.570Z,99.90
2022-12-18T21:43:41.206Z,99.90
2022-12-18T21:46:12.950Z,99.90
2022-12-18T21:48:44.689Z,99.90
2022-12-18T21:51:16.361Z,99.90
2022-12-18T21:53:48.089Z,99.90
2022-12-18T21:56:22.768Z,99.90
2022-12-18T21:58:56.824Z,99.90
2022-12-18T22:01:33.408Z,99.90
2022-12-18T22:04:09.328Z,99.90
2022-12-18T22:06:41.009Z,99.90
2022-12-18T22:09:13.891Z,99.90
2022-12-18T22:11:46.964Z,99.90
2022-12-18T22:14:18.604Z,99.90
2022-12-18T22:16:50.316Z,99.90
2022-12-18T22:19:22.211Z,99.90
2022-12-18T22:21:53.942Z,99.90
2022-12-18T22:24:26.272Z,99.90
2022-12-18T22:27:01.663Z,99.90
2022-12-18T22:29:33.918Z,99.90
2022-12-18T22:32:07.386Z,99.90
2022-12-18T22:34:40.646Z,99.90
2022-12-18T22:37:12.420Z,99.90
2022-12-18T22:39:44.071Z,99.90
2022-12-18T22:42:17.498Z,99.90
2022-12-18T22:44:49.186Z,99.90
2022-12-18T22:47:23.349Z,99.90
2022-12-18T22:49:58.268Z,99.90
2022-12-18T22:52:29.955Z,99.90
2022-12-18T22:55:01.606Z,99.90
2022-12-18T22:57:34.648Z,99.90
